Time;durP1;ratioP1;P1;durP2;ratioP2;P2;SDS_P1;SDS_P2;PMS_P1;PMS_P2;Temp;Humidity;BMP_temperature;BMP_pressure;BME280_temperature;BME280_humidity;BME280_pressure;Samples;Min_cycle;Max_cycle;Signal;HPM_P1;HPM_P2
2022/08/02 08:31:45;;;;;;;1.90;1.80;;;;;;;;;;5019165;28;20623;-62
2022/08/02 08:34:11;;;;;;;2.00;1.90;;;;;;;;;;5016131;28;20343;-62
2022/08/02 08:36:37;;;;;;;1.95;1.85;;;;;;;;;;5017566;28;24298;-63
2022/08/02 08:39:03;;;;;;;2.10;2.00;;;;;;;;;;4998384;28;20220;-63
2022/08/02 08:41:29;;;;;;;1.00;1.00;;;;;;;;;;5016551;28;20318;-64
2022/08/02 08:43:55;;;;;;;1.73;1.70;;;;;;;;;;5005534;28;20232;-63
2022/08/02 08:46:26;;;;;;;1.20;1.20;;;;;;;;;;5017215;28;20221;-63
2022/08/02 08:48:52;;;;;;;1.02;1.02;;;;;;;;;;5029109;28;20715;-63
2022/08/02 08:51:19;;;;;;;0.93;0.93;;;;;;;;;;5029536;28;20231;-61
2022/08/02 08:53:46;;;;;;;0.80;0.80;;;;;;;;;;5017969;28;20188;-63
2022/08/02 08:56:12;;;;;;;0.80;0.80;;;;;;;;;;5019283;28;20256;-63
2022/08/02 08:58:38;;;;;;;0.95;0.95;;;;;;;;;;5031947;28;20618;-62
2022/08/02 09:01:04;;;;;;;0.70;0.70;;;;;;;;;;5026242;28;20246;-63
2022/08/02 09:03:30;;;;;;;0.80;0.80;;;;;;;;;;5025471;28;20220;-63
2022/08/02 09:05:59;;;;;;;0.70;0.70;;;;;;;;;;5034384;28;20238;-63
2022/08/02 09:08:25;;;;;;;0.70;0.70;;;;;;;;;;5038349;28;20617;-63
2022/08/02 09:10:52;;;;;;;0.70;0.70;;;;;;;;;;5035019;28;20224;-63
2022/08/02 09:13:19;;;;;;;1.15;1.15;;;;;;;;;;5026287;28;21390;-63
2022/08/02 09:15:46;;;;;;;0.90;0.90;;;;;;;;;;5027553;28;20216;-63
2022/08/02 09:18:12;;;;;;;0.60;0.60;;;;;;;;;;5012059;28;20212;-64
2022/08/02 09:20:56;;;;;;;0.82;0.82;;;;;;;;;;5021310;28;20330;-63
2022/08/02 09:23:22;;;;;;;0.80;0.80;;;;;;;;;;5032813;28;20723;-63
2022/08/02 09:25:58;;;;;;;0.80;0.80;;;;;;;;;;5056331;28;20219;-64
2022/08/02 09:28:30;;;;;;;0.80;0.80;;;;;;;;;;5054364;28;20219;-63
2022/08/02 09:31:03;;;;;;;0.80;0.80;;;;;;;;;;5048323;28;20259;-63
2022/08/02 09:33:29;;;;;;;0.80;0.80;;;;;;;;;;5056506;28;20214;-63
2022/08/02 09:35:59;;;;;;;0.70;0.70;;;;;;;;;;5059792;28;20226;-64
2022/08/02 09:38:25;;;;;;;0.80;0.80;;;;;;;;;;5063711;28;20218;-63
2022/08/02 09:40:51;;;;;;;0.73;0.73;;;;;;;;;;5057757;28;20388;-62
2022/08/02 09:43:18;;;;;;;0.70;0.70;;;;;;;;;;5046454;28;20216;-62
2022/08/02 09:45:44;;;;;;;0.63;0.63;;;;;;;;;;5043829;28;20208;-63
2022/08/02 09:48:10;;;;;;;0.70;0.70;;;;;;;;;;5033978;28;20192;-63
2022/08/02 09:50:40;;;;;;;0.70;0.70;;;;;;;;;;5039711;28;20293;-64
2022/08/02 09:53:06;;;;;;;0.80;0.80;;;;;;;;;;5038131;28;20196;-62
2022/08/02 09:55:32;;;;;;;0.75;0.75;;;;;;;;;;5036191;28;20235;-63
2022/08/02 09:57:58;;;;;;;1.10;1.10;;;;;;;;;;5043063;28;20204;-64
2022/08/02 10:00:24;;;;;;;1.35;1.35;;;;;;;;;;4995874;28;20219;-63
2022/08/02 10:03:06;;;;;;;0.80;0.80;;;;;;;;;;5027745;28;20648;-64
2022/08/02 10:05:52;;;;;;;0.70;0.70;;;;;;;;;;5037107;28;20206;-63
2022/08/02 10:08:19;;;;;;;0.90;0.90;;;;;;;;;;5043683;28;20306;-63
2022/08/02 10:10:45;;;;;;;0.70;0.70;;;;;;;;;;5036999;28;20227;-63
2022/08/02 10:13:10;;;;;;;0.77;0.77;;;;;;;;;;5037351;28;20765;-64
2022/08/02 10:15:37;;;;;;;0.80;0.80;;;;;;;;;;5039904;28;20219;-63
2022/08/02 10:18:04;;;;;;;0.80;0.80;;;;;;;;;;5038296;28;20702;-63
2022/08/02 10:20:30;;;;;;;0.80;0.80;;;;;;;;;;5039122;28;20689;-63
2022/08/02 10:22:56;;;;;;;0.90;0.90;;;;;;;;;;5046597;28;20199;-64
2022/08/02 10:25:22;;;;;;;0.80;0.80;;;;;;;;;;5037686;28;20215;-64
2022/08/02 10:27:48;;;;;;;0.98;0.98;;;;;;;;;;5019107;28;20218;-63
2022/08/02 10:30:14;;;;;;;1.00;1.00;;;;;;;;;;5048564;28;20238;-63
2022/08/02 10:32:42;;;;;;;1.00;1.00;;;;;;;;;;5063972;28;20218;-63
2022/08/02 10:35:08;;;;;;;0.85;0.85;;;;;;;;;;5056066;28;20199;-63
2022/08/02 10:37:35;;;;;;;0.90;0.90;;;;;;;;;;5056163;28;20857;-63
2022/08/02 10:40:01;;;;;;;1.00;1.00;;;;;;;;;;5033848;28;20202;-63
2022/08/02 10:42:46;;;;;;;0.90;0.90;;;;;;;;;;5034262;28;20230;-62
2022/08/02 10:45:14;;;;;;;0.80;0.80;;;;;;;;;;5049719;28;20231;-62
2022/08/02 10:47:39;;;;;;;0.90;0.90;;;;;;;;;;5059035;28;20207;-63
2022/08/02 10:50:06;;;;;;;0.82;0.82;;;;;;;;;;5063727;28;21100;-63
2022/08/02 10:52:32;;;;;;;0.80;0.80;;;;;;;;;;5056568;28;20238;-63
2022/08/02 10:54:58;;;;;;;0.70;0.70;;;;;;;;;;5059015;28;20285;-63
2022/08/02 10:57:24;;;;;;;0.73;0.73;;;;;;;;;;5045477;28;20194;-63
2022/08/02 10:59:52;;;;;;;0.85;0.85;;;;;;;;;;5060834;28;20192;-63
2022/08/02 11:02:36;;;;;;;0.70;0.70;;;;;;;;;;5054484;28;20345;-63
2022/08/02 11:05:06;;;;;;;0.70;0.70;;;;;;;;;;5057353;28;20206;-63
2022/08/02 11:07:42;;;;;;;0.88;0.88;;;;;;;;;;5059878;28;20215;-63
2022/08/02 11:10:24;;;;;;;1.00;1.00;;;;;;;;;;5065865;28;20270;-65
2022/08/02 11:13:06;;;;;;;1.00;1.00;;;;;;;;;;5063963;28;21055;-63
2022/08/02 11:15:49;;;;;;;0.80;0.80;;;;;;;;;;5063537;28;20203;-63
2022/08/02 11:18:15;;;;;;;1.00;1.00;;;;;;;;;;5058565;28;20198;-62
2022/08/02 11:20:41;;;;;;;0.80;0.80;;;;;;;;;;5057859;28;20206;-63
2022/08/02 11:23:25;;;;;;;0.70;0.70;;;;;;;;;;5061778;28;20278;-62
2022/08/02 11:25:51;;;;;;;0.70;0.70;;;;;;;;;;5062657;28;21314;-62
2022/08/02 11:28:17;;;;;;;0.90;0.90;;;;;;;;;;5064169;28;20186;-63
2022/08/02 11:30:43;;;;;;;1.10;1.10;;;;;;;;;;5031742;28;20245;-62
2022/08/02 11:33:09;;;;;;;1.30;1.30;;;;;;;;;;5047409;28;20198;-63
2022/08/02 11:35:36;;;;;;;1.30;1.30;;;;;;;;;;5062011;28;20226;-62
2022/08/02 11:38:19;;;;;;;1.48;1.48;;;;;;;;;;5038430;28;20184;-62
2022/08/02 11:40:45;;;;;;;0.98;0.98;;;;;;;;;;5045312;28;20214;-63
2022/08/02 11:43:25;;;;;;;1.00;1.00;;;;;;;;;;5056153;28;20207;-62
2022/08/02 11:45:52;;;;;;;1.17;1.17;;;;;;;;;;5051656;28;20261;-62
2022/08/02 11:48:34;;;;;;;0.90;0.90;;;;;;;;;;5055906;28;20635;-63
2022/08/02 11:51:03;;;;;;;0.82;0.82;;;;;;;;;;5057992;28;20227;-62
2022/08/02 11:53:29;;;;;;;0.80;0.80;;;;;;;;;;5055506;28;20225;-62
2022/08/02 11:55:56;;;;;;;0.95;0.95;;;;;;;;;;5058239;28;20721;-62
2022/08/02 11:58:22;;;;;;;1.00;1.00;;;;;;;;;;5048214;28;20218;-62
2022/08/02 12:00:48;;;;;;;1.35;1.35;;;;;;;;;;5060617;28;20745;-63
2022/08/02 12:03:14;;;;;;;1.45;1.45;;;;;;;;;;5058458;28;20771;-61
2022/08/02 12:05:40;;;;;;;1.45;1.45;;;;;;;;;;5055032;28;20223;-62
2022/08/02 12:08:06;;;;;;;1.50;1.50;;;;;;;;;;5040471;28;21175;-61
2022/08/02 12:10:32;;;;;;;1.50;1.50;;;;;;;;;;5062055;28;20238;-62
2022/08/02 12:12:59;;;;;;;1.80;1.70;;;;;;;;;;5061773;28;20191;-61
2022/08/02 12:15:44;;;;;;;1.52;1.52;;;;;;;;;;5045125;28;20644;-62
2022/08/02 12:20:55;;;;;;;1.50;1.50;;;;;;;;;;5062327;28;20585;-62
2022/08/02 12:23:21;;;;;;;1.90;1.80;;;;;;;;;;5057045;28;20268;-62
2022/08/02 12:25:58;;;;;;;1.60;1.60;;;;;;;;;;5063396;28;20192;-61
2022/08/02 12:28:25;;;;;;;1.63;1.63;;;;;;;;;;5060761;28;20266;-62
2022/08/02 12:30:55;;;;;;;1.85;1.75;;;;;;;;;;5042143;28;20245;-62
2022/08/02 12:33:21;;;;;;;0.90;0.90;;;;;;;;;;5043917;28;20215;-62
2022/08/02 12:35:47;;;;;;;0.90;0.90;;;;;;;;;;5027432;28;20786;-62
2022/08/02 12:38:13;;;;;;;0.93;0.93;;;;;;;;;;5059977;28;20704;-63
2022/08/02 12:40:39;;;;;;;1.00;1.00;;;;;;;;;;5039545;28;20375;-63
2022/08/02 12:43:05;;;;;;;0.90;0.90;;;;;;;;;;5044363;28;21211;-62
2022/08/02 12:45:32;;;;;;;0.85;0.85;;;;;;;;;;5049960;28;20225;-62
2022/08/02 12:47:58;;;;;;;0.88;0.88;;;;;;;;;;5055417;28;20265;-63
2022/08/02 12:50:28;;;;;;;0.90;0.90;;;;;;;;;;5059598;28;20227;-62
2022/08/02 12:53:13;;;;;;;0.90;0.90;;;;;;;;;;5058856;28;21560;-63
2022/08/02 12:55:49;;;;;;;1.00;1.00;;;;;;;;;;5057590;28;20291;-62
2022/08/02 12:58:15;;;;;;;0.85;0.85;;;;;;;;;;5064932;28;21202;-62
2022/08/02 13:00:42;;;;;;;0.80;0.80;;;;;;;;;;5038960;28;20195;-62
2022/08/02 13:03:08;;;;;;;0.90;0.90;;;;;;;;;;5045261;28;21816;-62
2022/08/02 13:05:35;;;;;;;1.00;1.00;;;;;;;;;;5045888;28;20227;-63
2022/08/02 13:08:01;;;;;;;0.90;0.90;;;;;;;;;;5048505;28;20214;-63
2022/08/02 13:10:27;;;;;;;1.00;1.00;;;;;;;;;;5048508;28;20219;-62
2022/08/02 13:12:53;;;;;;;0.80;0.80;;;;;;;;;;5046095;28;20226;-63
2022/08/02 13:15:20;;;;;;;0.90;0.90;;;;;;;;;;5050726;28;20230;-62
2022/08/02 13:17:49;;;;;;;0.90;0.90;;;;;;;;;;5062798;28;20270;-62
2022/08/02 13:20:15;;;;;;;0.90;0.90;;;;;;;;;;5056553;28;20202;-63
2022/08/02 13:22:41;;;;;;;0.90;0.90;;;;;;;;;;5050840;28;20708;-63
2022/08/02 13:25:10;;;;;;;0.85;0.85;;;;;;;;;;5061779;28;20298;-62
2022/08/02 13:27:37;;;;;;;0.90;0.90;;;;;;;;;;5047840;28;20187;-62
2022/08/02 13:30:03;;;;;;;1.00;1.00;;;;;;;;;;5059664;28;20257;-63
2022/08/02 13:32:29;;;;;;;0.98;0.98;;;;;;;;;;5055737;28;20219;-63
2022/08/02 13:34:58;;;;;;;1.00;1.00;;;;;;;;;;5039026;28;20270;-62
2022/08/02 13:37:24;;;;;;;0.93;0.93;;;;;;;;;;5056474;28;20307;-63
2022/08/02 13:39:50;;;;;;;0.95;0.95;;;;;;;;;;5046000;28;20188;-63
2022/08/02 13:42:16;;;;;;;0.90;0.90;;;;;;;;;;5063111;28;20221;-63
2022/08/02 13:44:42;;;;;;;1.00;1.00;;;;;;;;;;5064912;28;20209;-62
2022/08/02 13:47:10;;;;;;;0.90;0.90;;;;;;;;;;5061163;28;20184;-63
2022/08/02 13:49:36;;;;;;;0.98;0.98;;;;;;;;;;5058185;28;20220;-62
2022/08/02 13:52:02;;;;;;;0.90;0.90;;;;;;;;;;5062189;28;20596;-62
2022/08/02 13:54:28;;;;;;;0.98;0.98;;;;;;;;;;5063350;28;20286;-62
2022/08/02 13:56:54;;;;;;;0.90;0.90;;;;;;;;;;5067906;28;20203;-62
2022/08/02 13:59:20;;;;;;;0.90;0.90;;;;;;;;;;5050903;28;20222;-63
2022/08/02 14:01:46;;;;;;;1.00;1.00;;;;;;;;;;5048131;28;20257;-62
2022/08/02 14:04:12;;;;;;;0.90;0.90;;;;;;;;;;5050931;28;20769;-63
2022/08/02 14:06:38;;;;;;;1.00;1.00;;;;;;;;;;5047165;28;21612;-63
2022/08/02 14:09:04;;;;;;;1.00;1.00;;;;;;;;;;5063184;28;20234;-62
2022/08/02 14:11:29;;;;;;;0.90;0.90;;;;;;;;;;5056025;28;20280;-62
2022/08/02 14:13:56;;;;;;;0.95;0.95;;;;;;;;;;5068789;28;20190;-63
2022/08/02 14:16:22;;;;;;;0.90;0.90;;;;;;;;;;5061341;28;20840;-62
2022/08/02 14:18:47;;;;;;;0.90;0.90;;;;;;;;;;5057984;28;20213;-63
2022/08/02 14:21:13;;;;;;;0.80;0.80;;;;;;;;;;5061410;28;20246;-63
2022/08/02 14:23:39;;;;;;;1.00;1.00;;;;;;;;;;5063093;28;20246;-63
2022/08/02 14:26:08;;;;;;;1.00;1.00;;;;;;;;;;5070421;28;20199;-63
2022/08/02 14:28:34;;;;;;;0.90;0.90;;;;;;;;;;5070586;28;20614;-63
2022/08/02 14:31:00;;;;;;;0.90;0.90;;;;;;;;;;5053859;28;20267;-64
2022/08/02 14:33:26;;;;;;;0.93;0.93;;;;;;;;;;5064076;28;20405;-63
2022/08/02 14:35:52;;;;;;;1.10;1.10;;;;;;;;;;5061261;28;20246;-67
2022/08/02 14:38:18;;;;;;;1.40;1.40;;;;;;;;;;5065096;28;20238;-64
2022/08/02 14:40:44;;;;;;;1.40;1.40;;;;;;;;;;5065619;28;20219;-64
2022/08/02 14:44:02;;;;;;;1.30;1.30;;;;;;;;;;5064636;28;20745;-64
2022/08/02 14:45:56;;;;;;;1.50;1.50;;;;;;;;;;5066100;28;20798;-64
2022/08/02 14:48:22;;;;;;;1.48;1.48;;;;;;;;;;5053806;28;20193;-62
2022/08/02 14:50:48;;;;;;;1.50;1.50;;;;;;;;;;5054565;28;20321;-64
2022/08/02 14:53:14;;;;;;;1.50;1.50;;;;;;;;;;5054997;28;20274;-64
2022/08/02 14:55:41;;;;;;;1.48;1.48;;;;;;;;;;5046855;28;20238;-63
2022/08/02 14:58:07;;;;;;;1.30;1.30;;;;;;;;;;5045613;28;20706;-63
2022/08/02 15:00:33;;;;;;;1.40;1.40;;;;;;;;;;5062882;28;20207;-62
2022/08/02 15:02:59;;;;;;;1.30;1.30;;;;;;;;;;5055069;28;20225;-63
2022/08/02 15:05:25;;;;;;;1.38;1.38;;;;;;;;;;5059381;28;20306;-63
2022/08/02 15:07:50;;;;;;;1.40;1.40;;;;;;;;;;5065494;28;20226;-63
2022/08/02 15:10:16;;;;;;;1.60;1.60;;;;;;;;;;5064926;28;20242;-63
2022/08/02 15:12:42;;;;;;;1.50;1.50;;;;;;;;;;5065161;28;20214;-64
2022/08/02 15:15:08;;;;;;;1.50;1.50;;;;;;;;;;5066272;28;20223;-64
2022/08/02 15:17:34;;;;;;;1.60;1.60;;;;;;;;;;5061123;28;20228;-63
2022/08/02 15:20:00;;;;;;;1.50;1.50;;;;;;;;;;5063560;28;20784;-63
2022/08/02 15:22:26;;;;;;;1.60;1.60;;;;;;;;;;5063628;28;20225;-63
2022/08/02 15:24:52;;;;;;;1.58;1.55;;;;;;;;;;5064923;28;20792;-64
2022/08/02 15:27:18;;;;;;;1.40;1.40;;;;;;;;;;5065849;28;20230;-63
2022/08/02 15:29:44;;;;;;;1.60;1.60;;;;;;;;;;5061055;28;20230;-63
2022/08/02 15:32:10;;;;;;;1.40;1.40;;;;;;;;;;5057864;28;20219;-63
2022/08/02 15:34:36;;;;;;;1.50;1.50;;;;;;;;;;5056424;28;21325;-63
2022/08/02 15:37:02;;;;;;;1.30;1.30;;;;;;;;;;5055656;28;20612;-63
2022/08/02 15:39:28;;;;;;;1.60;1.60;;;;;;;;;;5058204;28;20671;-63
2022/08/02 15:41:54;;;;;;;1.52;1.52;;;;;;;;;;5058819;28;20227;-64
2022/08/02 15:44:20;;;;;;;1.50;1.50;;;;;;;;;;5065328;28;20219;-63
2022/08/02 15:46:46;;;;;;;1.50;1.50;;;;;;;;;;5062774;28;20199;-63
2022/08/02 15:49:12;;;;;;;1.55;1.55;;;;;;;;;;5061789;28;20711;-63
2022/08/02 15:51:38;;;;;;;1.50;1.50;;;;;;;;;;5060889;28;20230;-64
2022/08/02 15:54:04;;;;;;;1.55;1.55;;;;;;;;;;5059806;28;20246;-63
2022/08/02 15:56:30;;;;;;;1.67;1.67;;;;;;;;;;5071623;28;20723;-63
2022/08/02 15:58:56;;;;;;;1.52;1.52;;;;;;;;;;5058008;28;20210;-63
2022/08/02 16:01:22;;;;;;;1.70;1.70;;;;;;;;;;5062543;28;20851;-64
2022/08/02 16:03:48;;;;;;;1.80;1.70;;;;;;;;;;5057112;28;20907;-64
2022/08/02 16:06:14;;;;;;;1.60;1.60;;;;;;;;;;5056326;28;20214;-63
2022/08/02 16:08:40;;;;;;;1.90;1.80;;;;;;;;;;5053938;28;20218;-64
2022/08/02 16:11:06;;;;;;;1.70;1.67;;;;;;;;;;5057581;28;20223;-63
2022/08/02 16:16:17;;;;;;;1.80;1.70;;;;;;;;;;5053702;28;20229;-63
2022/08/02 16:18:43;;;;;;;1.80;1.70;;;;;;;;;;5066570;28;20214;-63
2022/08/02 16:21:09;;;;;;;1.70;1.60;;;;;;;;;;5068200;28;20221;-63
2022/08/02 16:23:35;;;;;;;1.70;1.60;;;;;;;;;;5066406;28;20228;-63
2022/08/02 16:26:01;;;;;;;1.60;1.60;;;;;;;;;;5067443;28;20221;-63
2022/08/02 16:28:27;;;;;;;1.80;1.70;;;;;;;;;;5053782;28;20267;-63
2022/08/02 16:30:53;;;;;;;1.60;1.60;;;;;;;;;;5052493;28;20277;-63
2022/08/02 16:33:20;;;;;;;1.60;1.60;;;;;;;;;;5053217;28;20207;-63
2022/08/02 16:35:46;;;;;;;1.85;1.75;;;;;;;;;;5062592;28;20200;-63
2022/08/02 16:38:12;;;;;;;1.70;1.70;;;;;;;;;;5059435;28;20219;-63
2022/08/02 16:40:38;;;;;;;1.50;1.50;;;;;;;;;;5052167;28;20345;-64
2022/08/02 16:43:04;;;;;;;1.50;1.50;;;;;;;;;;5060223;28;20232;-63
2022/08/02 16:45:30;;;;;;;1.50;1.50;;;;;;;;;;5059985;28;20303;-63
2022/08/02 16:47:56;;;;;;;1.50;1.50;;;;;;;;;;5066977;28;20286;-63
2022/08/02 16:50:23;;;;;;;1.60;1.60;;;;;;;;;;5059358;28;20262;-63
2022/08/02 16:52:49;;;;;;;1.77;1.67;;;;;;;;;;5068009;28;20211;-63
2022/08/02 16:55:15;;;;;;;1.60;1.60;;;;;;;;;;5069466;28;20223;-63
2022/08/02 16:57:41;;;;;;;1.60;1.60;;;;;;;;;;5060249;28;20268;-63
2022/08/02 17:00:09;;;;;;;1.73;1.70;;;;;;;;;;5067943;28;20341;-63
2022/08/02 17:02:36;;;;;;;1.60;1.60;;;;;;;;;;5069448;28;20752;-63
2022/08/02 17:05:02;;;;;;;1.85;1.75;;;;;;;;;;5065169;28;20221;-63
2022/08/02 17:07:28;;;;;;;1.63;1.63;;;;;;;;;;5070734;28;20212;-63
2022/08/02 17:09:54;;;;;;;1.90;1.80;;;;;;;;;;5059240;28;20203;-63
2022/08/02 17:12:20;;;;;;;1.63;1.63;;;;;;;;;;5066087;28;20219;-63
2022/08/02 17:14:47;;;;;;;1.90;1.80;;;;;;;;;;5064166;28;20292;-63
2022/08/02 17:17:13;;;;;;;1.90;1.80;;;;;;;;;;5062825;28;20679;-63
2022/08/02 17:19:39;;;;;;;1.70;1.70;;;;;;;;;;5056417;28;20230;-63
2022/08/02 17:22:05;;;;;;;1.65;1.65;;;;;;;;;;5071135;28;20271;-63
2022/08/02 17:24:31;;;;;;;1.65;1.65;;;;;;;;;;5062853;28;20330;-64
2022/08/02 17:26:57;;;;;;;1.83;1.73;;;;;;;;;;5065765;28;20292;-63
2022/08/02 17:29:23;;;;;;;1.60;1.60;;;;;;;;;;5063136;28;20218;-63
2022/08/02 17:31:49;;;;;;;1.65;1.65;;;;;;;;;;5066822;28;20215;-63
2022/08/02 17:34:16;;;;;;;1.63;1.63;;;;;;;;;;5061159;28;20308;-63
2022/08/02 17:36:42;;;;;;;1.80;1.70;;;;;;;;;;5055611;28;20662;-63
2022/08/02 17:39:08;;;;;;;1.60;1.60;;;;;;;;;;5066277;28;20225;-63
2022/08/02 17:41:35;;;;;;;1.55;1.55;;;;;;;;;;5066266;28;20230;-64
2022/08/02 17:44:01;;;;;;;1.50;1.50;;;;;;;;;;5068062;28;21295;-63
2022/08/02 17:46:27;;;;;;;1.70;1.70;;;;;;;;;;5048448;28;20215;-63
2022/08/02 17:51:38;;;;;;;1.60;1.60;;;;;;;;;;5051787;28;21463;-63
2022/08/02 17:54:04;;;;;;;1.90;1.80;;;;;;;;;;5059459;28;20199;-63
2022/08/02 17:56:30;;;;;;;1.85;1.75;;;;;;;;;;5065030;28;20238;-64
2022/08/02 17:58:56;;;;;;;1.67;1.67;;;;;;;;;;5063127;28;20219;-63
2022/08/02 18:01:22;;;;;;;1.60;1.60;;;;;;;;;;5061500;28;20236;-63
2022/08/02 18:03:49;;;;;;;1.70;1.70;;;;;;;;;;5057368;28;20211;-63
2022/08/02 18:06:14;;;;;;;1.80;1.70;;;;;;;;;;5061441;28;20248;-62
2022/08/02 18:08:40;;;;;;;1.60;1.60;;;;;;;;;;5065432;28;20219;-63
2022/08/02 18:11:06;;;;;;;1.60;1.60;;;;;;;;;;5067267;28;20231;-63
2022/08/02 18:13:32;;;;;;;1.63;1.63;;;;;;;;;;5054081;28;20191;-63
2022/08/02 18:15:58;;;;;;;1.73;1.70;;;;;;;;;;5058128;28;20246;-63
2022/08/02 18:18:24;;;;;;;1.60;1.60;;;;;;;;;;5048720;28;20282;-62
2022/08/02 18:20:50;;;;;;;1.50;1.50;;;;;;;;;;5053704;28;20178;-63
2022/08/02 18:23:16;;;;;;;1.50;1.50;;;;;;;;;;5064284;28;20234;-63
2022/08/02 18:25:42;;;;;;;1.80;1.70;;;;;;;;;;5052765;28;20223;-63
2022/08/02 18:28:08;;;;;;;1.65;1.65;;;;;;;;;;5060198;28;20261;-63
2022/08/02 18:30:34;;;;;;;1.60;1.60;;;;;;;;;;5058714;28;20240;-63
2022/08/02 18:33:00;;;;;;;1.98;1.88;;;;;;;;;;5057939;28;20242;-63
2022/08/02 18:35:26;;;;;;;1.60;1.60;;;;;;;;;;5064848;28;20219;-63
2022/08/02 18:37:52;;;;;;;1.67;1.67;;;;;;;;;;5066663;28;20218;-62
2022/08/02 18:40:18;;;;;;;2.00;1.90;;;;;;;;;;5056166;28;20321;-63
2022/08/02 18:42:44;;;;;;;1.90;1.80;;;;;;;;;;5060749;28;20190;-62
2022/08/02 18:45:10;;;;;;;1.90;1.80;;;;;;;;;;5063633;28;20214;-62
2022/08/02 18:47:36;;;;;;;1.90;1.80;;;;;;;;;;5056355;28;20235;-63
2022/08/02 18:50:02;;;;;;;2.00;1.90;;;;;;;;;;5065353;28;20669;-62
2022/08/02 18:52:28;;;;;;;2.00;1.90;;;;;;;;;;5062941;28;20272;-63
2022/08/02 18:54:54;;;;;;;1.88;1.77;;;;;;;;;;5069005;28;20211;-63
2022/08/02 18:57:20;;;;;;;1.70;1.70;;;;;;;;;;5064813;28;20228;-63
2022/08/02 18:59:47;;;;;;;1.63;1.63;;;;;;;;;;5060122;28;20302;-63
2022/08/02 19:02:13;;;;;;;1.50;1.50;;;;;;;;;;5056866;28;20203;-62
2022/08/02 19:04:42;;;;;;;1.60;1.60;;;;;;;;;;5060300;28;20255;-63
2022/08/02 19:07:08;;;;;;;1.60;1.60;;;;;;;;;;5065934;28;21270;-63
2022/08/02 19:09:35;;;;;;;1.50;1.50;;;;;;;;;;5063734;28;20749;-63
2022/08/02 19:12:02;;;;;;;1.98;1.88;;;;;;;;;;5062773;28;20223;-63
2022/08/02 19:14:28;;;;;;;2.00;1.90;;;;;;;;;;5065518;28;20194;-63
2022/08/02 19:16:58;;;;;;;2.10;2.00;;;;;;;;;;5062570;28;20218;-63
2022/08/02 19:19:24;;;;;;;2.58;2.47;;;;;;;;;;5062624;28;20186;-63
2022/08/02 19:21:50;;;;;;;2.25;2.15;;;;;;;;;;5058927;28;20183;-63
2022/08/02 19:24:16;;;;;;;2.00;1.90;;;;;;;;;;5060098;28;20242;-63
2022/08/02 19:26:42;;;;;;;2.15;2.05;;;;;;;;;;5062880;28;20191;-63
2022/08/02 19:29:08;;;;;;;2.00;1.90;;;;;;;;;;5056787;28;20201;-62
2022/08/02 19:31:34;;;;;;;1.90;1.80;;;;;;;;;;5059564;28;20771;-63
2022/08/02 19:34:00;;;;;;;1.80;1.70;;;;;;;;;;5061246;28;20257;-63
2022/08/02 19:36:26;;;;;;;1.90;1.80;;;;;;;;;;5066922;28;20458;-63
2022/08/02 19:38:54;;;;;;;1.90;1.80;;;;;;;;;;5052397;28;20210;-66
2022/08/02 19:41:20;;;;;;;2.13;2.03;;;;;;;;;;5062202;28;20223;-64
2022/08/02 19:43:46;;;;;;;2.05;1.95;;;;;;;;;;5059253;28;20224;-64
2022/08/02 19:46:13;;;;;;;2.00;1.90;;;;;;;;;;5056574;28;20248;-65
2022/08/02 19:48:39;;;;;;;2.10;2.00;;;;;;;;;;5051343;28;20230;-65
2022/08/02 19:51:05;;;;;;;2.13;2.03;;;;;;;;;;5059641;28;20219;-65
2022/08/02 19:53:31;;;;;;;2.00;1.90;;;;;;;;;;5068326;28;20225;-65
2022/08/02 19:55:57;;;;;;;2.00;1.90;;;;;;;;;;5067112;28;20636;-65
2022/08/02 19:58:23;;;;;;;2.00;1.90;;;;;;;;;;5056899;28;20226;-64
2022/08/02 20:00:49;;;;;;;2.10;2.00;;;;;;;;;;5058473;28;20806;-64
2022/08/02 20:03:15;;;;;;;1.90;1.80;;;;;;;;;;5053176;28;20198;-65
2022/08/02 20:05:41;;;;;;;2.00;1.90;;;;;;;;;;5040973;28;20283;-59
2022/08/02 20:08:07;;;;;;;2.20;2.10;;;;;;;;;;5058228;28;20561;-60
2022/08/02 20:10:33;;;;;;;2.20;2.10;;;;;;;;;;5058951;28;20245;-59
2022/08/02 20:12:59;;;;;;;2.05;1.95;;;;;;;;;;5054630;28;20223;-60
2022/08/02 20:15:26;;;;;;;1.90;1.80;;;;;;;;;;5058238;28;20225;-60
2022/08/02 20:17:52;;;;;;;1.98;1.88;;;;;;;;;;5057316;28;20226;-60
2022/08/02 20:20:18;;;;;;;1.90;1.80;;;;;;;;;;5054966;28;20218;-60
2022/08/02 20:25:28;;;;;;;1.90;1.80;;;;;;;;;;5064985;28;20770;-60
2022/08/02 20:27:54;;;;;;;2.10;2.00;;;;;;;;;;5061462;28;20187;-60
2022/08/02 20:30:20;;;;;;;2.25;2.15;;;;;;;;;;5067311;28;20311;-60
2022/08/02 20:32:46;;;;;;;2.15;2.05;;;;;;;;;;5060701;28;20278;-60
2022/08/02 20:35:12;;;;;;;2.13;2.03;;;;;;;;;;5065387;28;20195;-60
2022/08/02 20:37:38;;;;;;;2.20;2.10;;;;;;;;;;5060647;28;20183;-59
2022/08/02 20:40:04;;;;;;;2.20;2.10;;;;;;;;;;5067041;28;20217;-59
2022/08/02 20:42:30;;;;;;;2.20;2.10;;;;;;;;;;5061635;28;20227;-60
2022/08/02 20:44:56;;;;;;;2.00;1.90;;;;;;;;;;5061675;28;21635;-60
2022/08/02 20:47:22;;;;;;;1.98;1.88;;;;;;;;;;5063533;28;20661;-60
2022/08/02 20:52:33;;;;;;;2.00;1.90;;;;;;;;;;5062884;28;20590;-60
2022/08/02 20:54:59;;;;;;;1.90;1.80;;;;;;;;;;5064817;28;20199;-60
2022/08/02 20:57:25;;;;;;;2.20;2.10;;;;;;;;;;5063474;28;20203;-60
2022/08/02 20:59:50;;;;;;;2.10;2.00;;;;;;;;;;5063387;28;20218;-60
2022/08/02 21:02:16;;;;;;;2.20;2.10;;;;;;;;;;5060833;28;20260;-59
2022/08/02 21:04:42;;;;;;;2.10;2.00;;;;;;;;;;5065182;28;20195;-59
2022/08/02 21:07:08;;;;;;;2.10;2.00;;;;;;;;;;5063777;28;20222;-60
2022/08/02 21:09:34;;;;;;;2.20;2.10;;;;;;;;;;5061453;28;20215;-59
2022/08/02 21:12:00;;;;;;;2.00;1.90;;;;;;;;;;5048481;28;20234;-59
2022/08/02 21:14:26;;;;;;;2.10;2.00;;;;;;;;;;5056907;28;20709;-59
2022/08/02 21:16:52;;;;;;;1.90;1.80;;;;;;;;;;5059919;28;20717;-60
2022/08/02 21:19:18;;;;;;;1.73;1.70;;;;;;;;;;5068118;28;20887;-60
2022/08/02 21:21:44;;;;;;;1.90;1.80;;;;;;;;;;5063960;28;20230;-60
2022/08/02 21:24:10;;;;;;;1.92;1.83;;;;;;;;;;5063652;28;20230;-60
2022/08/02 21:26:36;;;;;;;2.00;1.90;;;;;;;;;;5065189;28;20459;-59
2022/08/02 21:29:01;;;;;;;1.90;1.80;;;;;;;;;;5066685;28;20221;-60
2022/08/02 21:31:27;;;;;;;2.13;2.03;;;;;;;;;;5061151;28;20245;-60
2022/08/02 21:33:56;;;;;;;2.08;1.98;;;;;;;;;;5059509;28;20247;-60
2022/08/02 21:36:22;;;;;;;1.60;1.60;;;;;;;;;;5062374;28;20270;-60
2022/08/02 21:38:48;;;;;;;1.80;1.70;;;;;;;;;;5066619;28;20198;-59
2022/08/02 21:41:14;;;;;;;1.80;1.70;;;;;;;;;;5070775;28;20253;-59
2022/08/02 21:43:40;;;;;;;1.90;1.80;;;;;;;;;;5065490;28;20210;-59
2022/08/02 21:46:06;;;;;;;1.70;1.70;;;;;;;;;;5067028;28;20338;-60
2022/08/02 21:48:32;;;;;;;1.92;1.83;;;;;;;;;;5058901;28;20356;-59
2022/08/02 21:50:58;;;;;;;1.63;1.63;;;;;;;;;;5065173;28;20344;-60
2022/08/02 21:53:23;;;;;;;2.00;1.90;;;;;;;;;;5058047;28;20216;-60
2022/08/02 21:55:49;;;;;;;1.80;1.70;;;;;;;;;;5061820;28;20222;-60
2022/08/02 21:58:15;;;;;;;1.73;1.67;;;;;;;;;;5061694;28;20225;-60
2022/08/02 22:00:41;;;;;;;1.70;1.70;;;;;;;;;;5057263;28;20266;-60
2022/08/02 22:03:07;;;;;;;1.60;1.60;;;;;;;;;;5061863;28;20592;-59
2022/08/02 22:05:33;;;;;;;1.65;1.65;;;;;;;;;;5066150;28;20182;-59
2022/08/02 22:07:59;;;;;;;1.92;1.83;;;;;;;;;;5064142;28;20721;-59
2022/08/02 22:10:25;;;;;;;1.75;1.70;;;;;;;;;;5061142;28;20333;-59
2022/08/02 22:12:51;;;;;;;1.65;1.65;;;;;;;;;;5067353;28;20726;-59
2022/08/02 22:15:17;;;;;;;1.98;1.88;;;;;;;;;;5062706;28;20210;-59
2022/08/02 22:17:43;;;;;;;1.60;1.60;;;;;;;;;;5069732;28;20190;-60
2022/08/02 22:20:09;;;;;;;1.88;1.77;;;;;;;;;;5063513;28;20197;-60
2022/08/02 22:22:35;;;;;;;1.90;1.80;;;;;;;;;;5061245;28;20215;-60
2022/08/02 22:25:01;;;;;;;1.63;1.63;;;;;;;;;;5066575;28;20219;-60
2022/08/02 22:27:27;;;;;;;1.65;1.65;;;;;;;;;;5064796;28;20587;-60
2022/08/02 22:29:53;;;;;;;1.60;1.60;;;;;;;;;;5067199;28;20242;-59
2022/08/02 22:34:04;;;;;;;1.95;1.85;;;;;;;;;;5062657;28;20197;-60
2022/08/02 22:35:05;;;;;;;1.88;1.77;;;;;;;;;;5063612;28;20214;-60
2022/08/02 22:37:31;;;;;;;1.75;1.70;;;;;;;;;;5058300;28;20203;-60
2022/08/02 22:39:57;;;;;;;2.00;1.90;;;;;;;;;;5065127;28;20212;-59
2022/08/02 22:42:23;;;;;;;1.90;1.80;;;;;;;;;;5060616;28;20187;-59
2022/08/02 22:44:49;;;;;;;2.00;1.90;;;;;;;;;;5066535;28;20419;-59
2022/08/02 22:47:15;;;;;;;1.80;1.70;;;;;;;;;;5071208;28;20246;-60
2022/08/02 22:49:41;;;;;;;1.70;1.70;;;;;;;;;;5066859;28;20234;-59
2022/08/02 22:52:07;;;;;;;1.90;1.80;;;;;;;;;;5064582;28;21044;-59
2022/08/02 22:54:33;;;;;;;1.85;1.75;;;;;;;;;;5067271;28;20208;-60
2022/08/02 22:56:59;;;;;;;1.80;1.70;;;;;;;;;;5069570;28;20187;-59
2022/08/02 22:59:25;;;;;;;1.95;1.85;;;;;;;;;;5064392;28;20227;-60
2022/08/02 23:01:51;;;;;;;1.88;1.77;;;;;;;;;;5071088;28;20297;-59
2022/08/02 23:04:17;;;;;;;1.80;1.70;;;;;;;;;;5062787;28;20337;-59
2022/08/02 23:06:43;;;;;;;1.90;1.80;;;;;;;;;;5072226;28;20274;-60
2022/08/02 23:09:09;;;;;;;1.90;1.80;;;;;;;;;;5068381;28;20253;-59
2022/08/02 23:11:35;;;;;;;2.00;1.90;;;;;;;;;;5067465;28;20223;-59
2022/08/02 23:14:00;;;;;;;2.00;1.90;;;;;;;;;;5067383;28;20203;-59
2022/08/02 23:21:56;;;;;;;1.90;1.80;;;;;;;;;;5071338;28;20233;-60
2022/08/02 23:24:22;;;;;;;1.88;1.77;;;;;;;;;;5067894;28;20218;-60
2022/08/02 23:26:48;;;;;;;1.80;1.70;;;;;;;;;;5070773;28;20250;-59
2022/08/02 23:29:14;;;;;;;1.85;1.75;;;;;;;;;;5071089;28;20215;-60
2022/08/02 23:31:40;;;;;;;1.63;1.63;;;;;;;;;;5064197;28;20846;-59